Time;durP1;ratioP1;P1;durP2;ratioP2;P2;SDS_P1;SDS_P2;PMS_P1;PMS_P2;Temp;Humidity;BMP_temperature;BMP_pressure;BME280_temperature;BME280_humidity;BME280_pressure;Samples;Min_cycle;Max_cycle;Signal;HPM_P1;HPM_P2
2023/02/28 00:00:47;;;;;;;2.20;1.27;;;1.40;99.90;0.10;101934.00;;;;4914168;28;122897;-69
2023/02/28 00:03:13;;;;;;;3.63;1.40;;;0.40;99.90;0.10;101923.00;;;;4923186;28;121756;-69
2023/02/28 00:05:38;;;;;;;4.33;1.87;;;0.50;99.90;0.00;101934.00;;;;4927631;28;110528;-68
2023/02/28 00:08:04;;;;;;;1.47;1.37;;;0.50;99.90;0.00;101926.00;;;;4927742;28;93043;-69
2023/02/28 00:10:31;;;;;;;2.20;1.27;;;1.10;99.90;0.00;101927.00;;;;4909684;28;122162;-68
2023/02/28 00:13:06;;;;;;;4.27;2.40;;;0.40;99.90;-0.10;101915.00;;;;4928699;28;93022;-66
2023/02/28 00:15:33;;;;;;;3.00;1.30;;;0.40;99.90;-0.10;101919.00;;;;4928882;28;92347;-67
2023/02/28 00:17:58;;;;;;;2.20;1.87;;;0.30;99.90;-0.20;101924.00;;;;4912692;28;93013;-67
2023/02/28 00:20:24;;;;;;;3.10;1.97;;;1.10;99.90;-0.30;101919.00;;;;4926936;28;120922;-67
2023/02/28 00:22:52;;;;;;;3.63;1.80;;;1.00;99.90;-0.40;101919.00;;;;4927192;28;93947;-67
2023/02/28 00:25:22;;;;;;;2.70;2.10;;;0.00;99.90;-0.50;101927.00;;;;4941571;28;95868;-67
2023/02/28 00:27:48;;;;;;;2.20;1.80;;;-0.10;99.90;-0.60;101916.00;;;;4921048;28;92958;-66
2023/02/28 00:30:18;;;;;;;4.67;1.47;;;-0.20;99.90;-0.70;101929.00;;;;4929767;28;121033;-67
2023/02/28 00:32:44;;;;;;;3.33;2.23;;;-0.30;99.90;-0.70;101924.00;;;;4910913;28;93069;-67
2023/02/28 00:35:10;;;;;;;2.40;2.07;;;-0.30;99.90;-0.80;101931.00;;;;4929225;28;96502;-68
2023/02/28 00:37:36;;;;;;;2.90;1.40;;;-0.40;99.90;-0.80;101931.00;;;;4929811;28;93059;-67
2023/02/28 00:40:06;;;;;;;2.37;2.03;;;-0.40;99.90;-0.90;101930.00;;;;4929347;28;93460;-67
2023/02/28 00:42:34;;;;;;;3.70;2.27;;;-0.40;99.90;-0.90;101929.00;;;;4929541;28;94063;-67
2023/02/28 00:44:59;;;;;;;2.17;1.97;;;-0.50;99.90;-0.90;101934.00;;;;4930170;28;92912;-67
2023/02/28 00:47:25;;;;;;;2.53;1.87;;;0.50;99.90;-1.00;101929.00;;;;4906618;28;95564;-66
2023/02/28 00:49:51;;;;;;;4.37;2.10;;;-0.50;99.90;-1.00;101935.00;;;;4924793;28;122729;-67
2023/02/28 00:52:16;;;;;;;2.70;1.70;;;-0.50;99.90;-1.00;101929.00;;;;4925035;28;121906;-67
2023/02/28 00:54:42;;;;;;;2.83;1.30;;;-0.60;99.90;-1.00;101932.00;;;;4926600;28;109526;-67
2023/02/28 00:57:08;;;;;;;4.60;2.10;;;-0.50;99.90;-1.00;101925.00;;;;4927127;28;110861;-67
2023/02/28 00:59:34;;;;;;;4.53;1.83;;;-0.60;99.90;-1.10;101918.00;;;;4925554;28;123008;-67
2023/02/28 01:02:00;;;;;;;3.47;1.80;;;-0.70;99.90;-1.00;101928.00;;;;4926623;28;98623;-67
2023/02/28 01:04:26;;;;;;;2.53;1.70;;;-0.60;99.90;-1.00;101915.00;;;;4926605;28;110406;-67
2023/02/28 01:06:51;;;;;;;2.27;1.50;;;-0.60;99.90;-1.00;101929.00;;;;4927772;28;92787;-67
2023/02/28 01:09:17;;;;;;;2.73;1.43;;;-0.60;99.90;-1.00;101918.00;;;;4909089;28;122985;-67
2023/02/28 01:11:43;;;;;;;2.53;1.73;;;-0.70;99.90;-0.90;101920.00;;;;4928228;28;123215;-67
2023/02/28 01:14:15;;;;;;;2.90;2.03;;;-0.50;99.90;-0.90;101923.00;;;;4927598;28;93009;-67
2023/02/28 01:16:41;;;;;;;5.47;2.30;;;-0.50;99.90;-0.90;101924.00;;;;4926989;28;98569;-67
2023/02/28 01:19:07;;;;;;;3.80;1.97;;;-0.50;99.90;-0.90;101934.00;;;;4926082;28;110433;-67
2023/02/28 01:21:34;;;;;;;5.40;1.67;;;-0.40;99.90;-0.80;101924.00;;;;4922651;28;122805;-67
2023/02/28 01:24:02;;;;;;;2.57;1.70;;;-1.20;99.90;-0.80;101919.00;;;;4925656;28;93488;-66
2023/02/28 01:26:27;;;;;;;2.77;2.07;;;-0.30;99.90;-0.80;101919.00;;;;4925761;28;99414;-67
2023/02/28 01:28:53;;;;;;;2.80;1.67;;;-0.40;99.90;-0.90;101914.00;;;;4925235;28;122541;-67
2023/02/28 01:31:20;;;;;;;2.40;1.60;;;-0.50;99.90;-0.90;101927.00;;;;4922889;28;120759;-66
2023/02/28 01:33:46;;;;;;;4.40;1.80;;;-0.50;99.90;-0.90;101924.00;;;;4926791;28;93028;-67
2023/02/28 01:36:22;;;;;;;4.80;1.50;;;-0.40;99.90;-0.90;101922.00;;;;4927018;28;94018;-67
2023/02/28 01:38:48;;;;;;;2.00;1.80;;;-0.50;99.90;-0.90;101906.00;;;;4910525;28;93651;-67
2023/02/28 01:41:29;;;;;;;2.33;1.30;;;-0.40;99.90;-1.00;101918.00;;;;4925866;28;110837;-67
2023/02/28 01:44:44;;;;;;;3.20;1.90;;;-0.60;99.90;-1.00;101913.00;;;;4909177;28;94200;-66
2023/02/28 01:47:09;;;;;;;4.87;1.90;;;-0.50;99.90;-1.00;101913.00;;;;4927241;28;92808;-67
2023/02/28 01:49:36;;;;;;;5.50;2.23;;;-0.70;99.90;-1.00;101917.00;;;;4910029;28;109107;-67
2023/02/28 01:52:02;;;;;;;2.27;1.60;;;-0.50;99.90;-1.00;101920.00;;;;4925230;28;122817;-67
2023/02/28 01:54:31;;;;;;;3.40;1.60;;;-0.60;99.90;-1.00;101911.00;;;;4928662;28;92695;-67
2023/02/28 01:57:15;;;;;;;4.27;2.10;;;-0.60;99.90;-1.00;101917.00;;;;4909939;28;96290;-66
2023/02/28 01:59:53;;;;;;;2.40;1.57;;;-0.50;99.90;-1.00;101908.00;;;;4925875;28;93199;-66
2023/02/28 02:02:21;;;;;;;4.57;2.53;;;0.50;99.90;-1.00;101907.00;;;;4908396;28;94585;-67
2023/02/28 02:05:06;;;;;;;1.87;1.77;;;0.30;99.90;-1.00;101913.00;;;;4926474;28;102976;-67
2023/02/28 02:07:38;;;;;;;3.90;1.60;;;-0.50;99.90;-1.10;101902.00;;;;4924902;28;92748;-66
2023/02/28 02:10:21;;;;;;;3.80;1.87;;;-0.60;99.90;-1.20;101909.00;;;;4907614;28;93243;-66
2023/02/28 02:13:10;;;;;;;2.77;2.47;;;-0.60;99.90;-1.20;101907.00;;;;4906166;28;114207;-66
2023/02/28 02:15:49;;;;;;;5.13;2.43;;;-0.80;99.90;-1.30;101905.00;;;;4909345;28;104580;-66
2023/02/28 02:18:47;;;;;;;3.20;1.83;;;-0.80;99.90;-1.40;101901.00;;;;4910200;28;100211;-66
2023/02/28 02:21:53;;;;;;;6.43;2.30;;;-0.30;99.90;-1.50;101901.00;;;;4925652;28;114090;-66
2023/02/28 02:25:05;;;;;;;2.30;2.10;;;-0.90;99.90;-1.60;101888.00;;;;4910495;28;113031;-66
2023/02/28 02:28:03;;;;;;;4.30;2.20;;;-1.00;99.90;-1.70;101890.00;;;;4906655;28;98291;-66
2023/02/28 02:30:49;;;;;;;3.10;2.20;;;-1.20;99.90;-1.80;101888.00;;;;4925250;28;93789;-65
2023/02/28 02:33:59;;;;;;;3.77;2.03;;;-1.40;99.90;-1.90;101898.00;;;;4899569;28;116272;-66
2023/02/28 02:36:38;;;;;;;2.93;1.50;;;-1.40;99.90;-2.00;101879.00;;;;4919952;28;93943;-65
2023/02/28 02:39:09;;;;;;;2.17;1.53;;;-1.50;99.90;-2.10;101893.00;;;;4903142;28;93067;-65
2023/02/28 02:41:59;;;;;;;2.07;1.40;;;-1.60;99.90;-2.10;101881.00;;;;4923084;28;93200;-65
2023/02/28 02:44:38;;;;;;;4.17;2.00;;;-1.50;99.90;-2.20;101881.00;;;;4923801;28;93463;-65
2023/02/28 02:47:20;;;;;;;3.87;2.40;;;-1.70;99.90;-2.30;101879.00;;;;4908466;28;114059;-65
2023/02/28 02:49:56;;;;;;;3.10;2.07;;;-1.90;99.90;-2.40;101885.00;;;;4923782;28;92222;-65
2023/02/28 02:52:34;;;;;;;4.50;2.07;;;-1.80;99.90;-2.50;101881.00;;;;4908678;28;93255;-65
2023/02/28 02:55:02;;;;;;;3.93;2.40;;;-1.40;99.90;-2.50;101860.00;;;;4894235;28;93460;-65
2023/02/28 02:57:36;;;;;;;4.30;2.20;;;-2.10;99.90;-2.60;101872.00;;;;4908219;28;93881;-65
2023/02/28 03:00:08;;;;;;;4.47;2.20;;;-2.10;99.90;-2.60;101881.00;;;;4908189;28;96802;-64
2023/02/28 03:02:36;;;;;;;4.47;2.03;;;-1.80;99.90;-2.70;101890.00;;;;4906510;28;93107;-64
2023/02/28 03:05:09;;;;;;;8.00;2.40;;;-2.20;99.90;-2.80;101883.00;;;;4925500;28;93565;-64
2023/02/28 03:07:34;;;;;;;4.00;1.20;;;-2.30;99.90;-2.80;101883.00;;;;4923494;28;114698;-64
2023/02/28 03:10:01;;;;;;;2.93;1.93;;;-2.30;99.90;-2.90;101891.00;;;;4907769;28;109374;-64
2023/02/28 03:12:41;;;;;;;1.60;1.50;;;-2.30;99.90;-3.00;101891.00;;;;4924545;28;93190;-64
2023/02/28 03:15:33;;;;;;;2.57;1.90;;;-2.40;99.90;-3.00;101886.00;;;;4893425;28;92945;-65
2023/02/28 03:18:11;;;;;;;4.47;2.37;;;-2.40;99.90;-3.00;101893.00;;;;4908733;28;103245;-64
2023/02/28 03:21:02;;;;;;;3.60;1.83;;;-2.50;99.90;-3.10;101896.00;;;;4910015;28;92988;-64
2023/02/28 03:24:16;;;;;;;3.70;2.03;;;-2.60;99.90;-3.10;101892.00;;;;4923786;28;98844;-64
2023/02/28 03:27:00;;;;;;;6.53;2.40;;;-2.60;99.90;-3.20;101887.00;;;;4913602;28;106715;-64
2023/02/28 03:29:39;;;;;;;4.17;2.47;;;-2.60;99.90;-3.20;101884.00;;;;4926490;28;94042;-64
2023/02/28 03:32:50;;;;;;;2.23;1.83;;;-2.60;99.90;-3.20;101894.00;;;;4908699;28;101411;-63
2023/02/28 03:35:24;;;;;;;2.97;2.17;;;-2.60;99.90;-3.20;101894.00;;;;4880830;28;93891;-64
2023/02/28 03:37:59;;;;;;;5.40;2.67;;;-2.70;99.90;-3.10;101891.00;;;;4911561;28;93214;-64
2023/02/28 03:40:31;;;;;;;4.27;2.37;;;-2.70;99.90;-3.00;101898.00;;;;4912456;28;94265;-63
2023/02/28 03:43:04;;;;;;;3.37;2.00;;;-2.60;99.90;-3.00;101906.00;;;;4929178;28;92246;-63
2023/02/28 03:45:36;;;;;;;5.97;2.30;;;-2.60;99.90;-3.00;101901.00;;;;4927893;28;99032;-63
2023/02/28 03:48:21;;;;;;;7.50;3.00;;;-2.50;99.90;-2.90;101896.00;;;;4912681;28;109372;-64
2023/02/28 03:50:51;;;;;;;3.67;2.40;;;-2.40;99.90;-2.90;101899.00;;;;4927814;28;115561;-63
2023/02/28 03:53:35;;;;;;;7.53;2.53;;;-2.40;99.90;-2.90;101900.00;;;;4912165;28;92958;-63
2023/02/28 03:56:15;;;;;;;4.93;2.97;;;-2.40;99.90;-2.90;101906.00;;;;4928695;28;93066;-64
2023/02/28 03:59:01;;;;;;;6.80;2.93;;;-1.40;99.90;-2.90;101914.00;;;;4927014;28;100710;-63
2023/02/28 04:01:35;;;;;;;4.57;2.57;;;-2.50;99.90;-2.90;101917.00;;;;4893390;28;93048;-63
2023/02/28 04:04:02;;;;;;;8.00;3.23;;;-2.40;99.90;-2.90;101908.00;;;;4927651;28;93324;-63
2023/02/28 04:06:32;;;;;;;6.53;2.87;;;-2.80;99.90;-2.80;101913.00;;;;4926723;28;101055;-63
2023/02/28 04:08:59;;;;;;;3.73;2.80;;;-2.30;99.90;-2.80;101904.00;;;;4927176;28;109989;-63
2023/02/28 04:11:36;;;;;;;4.67;2.67;;;-2.40;99.90;-2.70;101907.00;;;;4928888;28;93353;-63
2023/02/28 04:14:04;;;;;;;3.47;2.67;;;-2.30;99.90;-2.70;101907.00;;;;4923682;28;93751;-63
2023/02/28 04:16:31;;;;;;;3.90;2.60;;;-1.40;99.90;-2.60;101907.00;;;;4927954;28;94168;-63
2023/02/28 04:19:04;;;;;;;6.80;2.93;;;-2.20;99.90;-2.60;101917.00;;;;4926656;28;93810;-64
2023/02/28 04:21:38;;;;;;;4.50;2.57;;;-2.10;99.90;-2.60;101906.00;;;;4926575;28;93037;-63
2023/02/28 04:24:05;;;;;;;5.87;3.30;;;-2.10;99.90;-2.60;101907.00;;;;4927757;28;93032;-63
2023/02/28 04:26:36;;;;;;;4.03;2.70;;;-2.10;99.90;-2.60;101913.00;;;;4927621;28;97580;-63
2023/02/28 04:29:04;;;;;;;4.33;3.10;;;-2.10;99.90;-2.60;101903.00;;;;4926296;28;93707;-64
2023/02/28 04:31:30;;;;;;;8.55;3.60;;;-2.20;99.90;-2.70;101910.00;;;;4922571;28;93225;-63
2023/02/28 04:33:57;;;;;;;5.90;2.97;;;-2.20;99.90;-2.80;101915.00;;;;4925997;28;92075;-63
2023/02/28 04:36:23;;;;;;;4.80;2.67;;;-2.30;99.90;-2.80;101909.00;;;;4927634;28;94197;-63
2023/02/28 04:38:49;;;;;;;4.77;2.50;;;-2.30;99.90;-2.90;101903.00;;;;4927968;28;94108;-63
2023/02/28 04:41:16;;;;;;;4.47;2.47;;;-2.30;99.90;-2.90;101912.00;;;;4925014;28;104082;-63
2023/02/28 04:43:42;;;;;;;4.27;2.33;;;-2.40;99.90;-3.00;101918.00;;;;4930781;28;93157;-63
2023/02/28 04:46:09;;;;;;;3.77;2.37;;;-2.50;99.90;-3.00;101922.00;;;;4928955;28;93058;-63
2023/02/28 04:48:37;;;;;;;4.43;2.90;;;-2.50;99.90;-3.10;101917.00;;;;4928573;28;93544;-63
2023/02/28 04:51:09;;;;;;;3.53;2.30;;;-2.20;99.90;-3.20;101919.00;;;;4916576;28;93968;-63
2023/02/28 04:53:45;;;;;;;5.20;2.30;;;-2.60;99.90;-3.20;101915.00;;;;4928206;28;94118;-63
2023/02/28 04:56:14;;;;;;;14.20;3.80;;;-2.80;99.90;-3.30;101917.00;;;;4929553;28;93092;-63
2023/02/28 04:58:39;;;;;;;7.80;2.93;;;-2.70;99.90;-3.30;101914.00;;;;4929198;28;113118;-63
2023/02/28 05:01:29;;;;;;;4.60;2.57;;;-2.90;99.90;-3.40;101920.00;;;;4927689;28;121554;-63
2023/02/28 05:03:58;;;;;;;4.23;2.60;;;-2.90;99.90;-3.50;101921.00;;;;4925962;28;93013;-63
2023/02/28 05:06:26;;;;;;;4.40;2.90;;;-2.90;99.90;-3.50;101918.00;;;;4927175;28;93864;-63
2023/02/28 05:08:53;;;;;;;5.13;2.57;;;-3.00;99.90;-3.50;101911.00;;;;4927147;28;101041;-63
2023/02/28 05:11:24;;;;;;;3.27;2.30;;;-3.10;99.90;-3.60;101915.00;;;;4925275;28;109466;-63
2023/02/28 05:13:51;;;;;;;6.07;3.60;;;-3.20;99.90;-3.60;101914.00;;;;4926833;28;92936;-63
2023/02/28 05:16:18;;;;;;;4.80;2.73;;;-3.10;99.90;-3.70;101923.00;;;;4925894;28;93002;-63
2023/02/28 05:18:45;;;;;;;3.40;2.77;;;-3.10;99.90;-3.70;101923.00;;;;4925219;28;93393;-63
2023/02/28 05:21:33;;;;;;;3.40;2.70;;;-2.40;99.90;-3.80;101922.00;;;;4925753;28;93413;-63
2023/02/28 05:24:02;;;;;;;4.00;2.50;;;-3.20;99.90;-3.80;101915.00;;;;4928999;28;92266;-65
2023/02/28 05:26:29;;;;;;;5.17;2.70;;;-3.20;99.90;-3.80;101915.00;;;;4908062;28;93196;-64
2023/02/28 05:28:55;;;;;;;3.57;2.63;;;-3.20;99.90;-3.70;101913.00;;;;4926723;28;93011;-63
2023/02/28 05:31:22;;;;;;;3.43;2.37;;;-3.20;99.90;-3.80;101921.00;;;;4923277;28;94758;-64
2023/02/28 05:33:47;;;;;;;4.00;3.07;;;-3.20;99.90;-3.80;101915.00;;;;4925199;28;98016;-63
2023/02/28 05:36:13;;;;;;;4.57;2.93;;;-3.10;99.90;-3.80;101921.00;;;;4927354;28;93011;-63
2023/02/28 05:38:39;;;;;;;3.73;2.73;;;-2.90;99.90;-3.80;101923.00;;;;4929393;28;94172;-64
2023/02/28 05:41:07;;;;;;;7.13;2.70;;;-3.30;99.90;-3.80;101924.00;;;;4926897;28;122535;-63
2023/02/28 05:43:34;;;;;;;5.57;3.30;;;-3.20;99.90;-3.80;101927.00;;;;4909587;28;93282;-64
2023/02/28 05:46:03;;;;;;;2.77;2.10;;;-3.00;99.90;-3.80;101932.00;;;;4928527;28;92997;-63
2023/02/28 05:48:29;;;;;;;3.70;2.73;;;-3.30;99.90;-3.80;101939.00;;;;4927814;28;93544;-63
2023/02/28 05:50:54;;;;;;;6.70;2.67;;;-3.20;99.90;-3.80;101939.00;;;;4925646;28;121314;-64
2023/02/28 05:53:21;;;;;;;4.50;2.57;;;-3.30;99.90;-3.80;101942.00;;;;4912555;28;110483;-64
2023/02/28 05:55:46;;;;;;;6.73;3.10;;;-3.30;99.90;-3.80;101939.00;;;;4929008;28;108653;-64
2023/02/28 05:58:12;;;;;;;5.77;3.20;;;-3.20;99.90;-3.80;101941.00;;;;4927817;28;122712;-64
2023/02/28 06:00:37;;;;;;;4.50;3.30;;;-3.30;99.90;-3.90;101955.00;;;;4926297;28;122417;-63
2023/02/28 06:03:03;;;;;;;10.00;3.83;;;-2.50;99.90;-3.90;101954.00;;;;4930385;28;109518;-65
2023/02/28 06:05:29;;;;;;;6.47;3.70;;;-3.20;99.90;-3.90;101957.00;;;;4927200;28;105745;-64
2023/02/28 06:07:55;;;;;;;6.33;3.43;;;-3.30;99.90;-3.90;101965.00;;;;4928545;28;92887;-65
2023/02/28 06:10:20;;;;;;;6.17;4.20;;;-3.40;99.90;-3.90;101977.00;;;;4940636;28;122171;-65
2023/02/28 06:12:46;;;;;;;6.67;4.30;;;-2.30;99.90;-3.90;101963.00;;;;4928899;28;112589;-65
2023/02/28 06:15:14;;;;;;;6.87;3.37;;;-3.40;99.90;-4.00;101967.00;;;;4929940;28;93257;-65
2023/02/28 06:17:43;;;;;;;5.80;3.43;;;-3.50;99.90;-3.90;101982.00;;;;4927841;28;93840;-65
2023/02/28 06:20:12;;;;;;;7.97;4.00;;;-3.40;99.90;-3.90;101973.00;;;;4910541;28;93917;-65
2023/02/28 06:22:39;;;;;;;4.83;3.47;;;-3.40;99.90;-3.90;101980.00;;;;4925738;28;93277;-64
2023/02/28 06:25:06;;;;;;;7.40;3.47;;;-3.30;99.90;-3.90;101971.00;;;;4923527;28;94347;-65
2023/02/28 06:27:34;;;;;;;7.03;4.17;;;-3.30;99.90;-3.80;101978.00;;;;4907420;28;94931;-65
2023/02/28 06:29:59;;;;;;;4.57;3.27;;;-3.30;99.90;-3.80;101981.00;;;;4929664;28;92723;-64
2023/02/28 06:32:25;;;;;;;7.73;4.20;;;-3.30;99.90;-3.70;101977.00;;;;4929450;28;110766;-64
2023/02/28 06:34:51;;;;;;;10.80;6.17;;;-3.20;99.90;-3.60;101974.00;;;;4926958;28;92887;-64
2023/02/28 06:37:18;;;;;;;10.80;6.53;;;-3.10;99.90;-3.50;101982.00;;;;4929338;28;93294;-65
2023/02/28 06:39:44;;;;;;;14.00;6.90;;;-3.00;99.90;-3.40;101986.00;;;;4928788;28;103945;-65
2023/02/28 06:42:09;;;;;;;8.93;5.23;;;-3.00;99.90;-3.30;101984.00;;;;4926504;28;93120;-65
2023/02/28 06:44:35;;;;;;;8.40;5.53;;;-2.90;99.90;-3.20;101985.00;;;;4925417;28;108274;-64
2023/02/28 06:47:05;;;;;;;8.80;5.50;;;-2.80;99.90;-3.10;101989.00;;;;4926549;28;121308;-64
2023/02/28 06:49:34;;;;;;;10.43;5.20;;;-2.60;99.90;-3.00;101985.00;;;;4927936;28;96593;-64
2023/02/28 06:52:00;;;;;;;9.93;5.50;;;-2.70;99.90;-2.80;101992.00;;;;4926469;28;92845;-64
2023/02/28 06:54:25;;;;;;;6.27;4.63;;;-2.50;99.90;-2.70;101998.00;;;;4926671;28;94315;-65
2023/02/28 06:56:51;;;;;;;9.33;4.27;;;-2.20;99.90;-2.50;102005.00;;;;4930543;28;123647;-65
2023/02/28 06:59:17;;;;;;;10.93;5.87;;;-1.70;99.90;-2.40;102004.00;;;;4928911;28;93600;-65
2023/02/28 07:01:43;;;;;;;10.93;6.40;;;-2.00;99.90;-2.20;102002.00;;;;4929830;28;110766;-65
2023/02/28 07:04:09;;;;;;;11.77;4.80;;;-1.80;99.90;-2.00;102001.00;;;;4931243;28;109870;-65
2023/02/28 07:06:35;;;;;;;8.67;5.10;;;-1.60;99.90;-1.80;102007.00;;;;4927952;28;111822;-65
2023/02/28 07:09:00;;;;;;;9.20;5.63;;;-1.40;99.90;-1.60;101998.00;;;;4929680;28;122499;-65
2023/02/28 07:11:27;;;;;;;8.77;4.77;;;-1.20;99.90;-1.40;102005.00;;;;4928882;28;110731;-65
2023/02/28 07:13:55;;;;;;;5.53;4.37;;;-1.00;99.90;-1.20;102013.00;;;;4929702;28;93044;-65
2023/02/28 07:16:22;;;;;;;6.97;4.53;;;-0.80;99.90;-1.00;102009.00;;;;4929776;28;93208;-65
2023/02/28 07:18:48;;;;;;;9.80;5.20;;;-0.60;99.90;-0.70;102016.00;;;;4928200;28;115498;-65
2023/02/28 07:21:14;;;;;;;3.73;3.20;;;-0.40;99.90;-0.50;102017.00;;;;4928833;28;93059;-65
2023/02/28 07:23:40;;;;;;;4.63;3.57;;;0.30;99.90;-0.40;102027.00;;;;4928793;28;99785;-66
2023/02/28 07:26:11;;;;;;;6.93;3.43;;;0.00;99.90;-0.40;102019.00;;;;4931349;28;92120;-63
2023/02/28 07:28:38;;;;;;;4.33;3.70;;;0.00;99.90;-0.30;102017.00;;;;4929554;28;93196;-63
2023/02/28 07:31:05;;;;;;;5.47;3.70;;;1.10;99.90;-0.30;102024.00;;;;4930954;28;93029;-66
2023/02/28 07:33:31;;;;;;;4.83;2.90;;;0.10;99.90;-0.30;102024.00;;;;4927916;28;94073;-63
2023/02/28 07:36:07;;;;;;;6.53;3.20;;;0.10;99.90;-0.30;102020.00;;;;4927932;28;111400;-65
2023/02/28 07:38:37;;;;;;;5.20;3.50;;;0.10;99.90;-0.20;102021.00;;;;4928922;28;93006;-65
2023/02/28 07:41:06;;;;;;;6.80;3.63;;;0.20;99.90;-0.10;102027.00;;;;4929269;28;92885;-66
2023/02/28 07:43:32;;;;;;;5.07;3.87;;;1.40;99.90;0.10;102027.00;;;;4929492;28;92730;-65
2023/02/28 07:46:08;;;;;;;4.13;3.23;;;0.40;99.90;0.20;102044.00;;;;4928423;28;122780;-64
2023/02/28 07:48:34;;;;;;;5.97;4.03;;;0.60;99.90;0.40;102041.00;;;;4929395;28;95873;-64
2023/02/28 07:51:00;;;;;;;6.20;3.40;;;0.80;99.90;0.70;102042.00;;;;4930097;28;92146;-65
2023/02/28 07:53:27;;;;;;;5.00;3.77;;;0.20;99.90;1.00;102040.00;;;;4927046;28;92928;-65
2023/02/28 07:56:02;;;;;;;3.93;3.27;;;1.30;99.90;1.30;102047.00;;;;4931870;28;93845;-65
2023/02/28 07:58:30;;;;;;;3.93;2.60;;;1.50;99.90;1.60;102042.00;;;;4943061;28;108916;-65
2023/02/28 08:00:56;;;;;;;5.33;3.37;;;1.80;99.90;1.90;102035.00;;;;4945536;28;95533;-66
2023/02/28 08:03:23;;;;;;;6.50;2.80;;;2.10;99.90;2.30;102043.00;;;;4933093;28;92999;-66
2023/02/28 08:05:49;;;;;;;2.80;2.10;;;2.40;99.90;2.60;102046.00;;;;4930174;28;93587;-65
2023/02/28 08:08:17;;;;;;;4.07;2.40;;;3.80;99.90;3.00;102037.00;;;;4929525;28;123999;-65
2023/02/28 08:10:43;;;;;;;5.20;2.97;;;3.10;99.90;3.30;102037.00;;;;4928106;28;92747;-66
2023/02/28 08:13:08;;;;;;;4.27;2.43;;;3.50;99.90;3.60;102039.00;;;;4927898;28;93008;-67
2023/02/28 08:15:34;;;;;;;3.13;2.20;;;4.00;99.90;4.00;102038.00;;;;4927300;28;106892;-67
2023/02/28 08:18:00;;;;;;;4.10;2.03;;;4.00;99.90;4.30;102039.00;;;;4927430;28;121011;-67
2023/02/28 08:20:26;;;;;;;2.70;1.77;;;4.40;99.90;4.60;102034.00;;;;4928092;28;111659;-67
2023/02/28 08:22:52;;;;;;;5.07;2.53;;;4.80;99.90;5.00;102041.00;;;;4924648;28;93956;-67
2023/02/28 08:25:18;;;;;;;5.60;2.93;;;5.10;99.90;5.30;102038.00;;;;4913078;28;121495;-66
2023/02/28 08:27:44;;;;;;;2.73;2.50;;;5.50;99.90;5.50;102039.00;;;;4930878;28;110699;-66
2023/02/28 08:30:12;;;;;;;3.47;1.93;;;5.60;99.90;5.70;102047.00;;;;4929895;28;92818;-66
2023/02/28 08:32:38;;;;;;;7.73;2.83;;;5.90;99.90;5.90;102040.00;;;;4928919;28;92987;-68
2023/02/28 08:35:04;;;;;;;6.33;2.97;;;6.20;99.90;6.10;102041.00;;;;4925225;28;114529;-66
2023/02/28 08:37:30;;;;;;;8.23;2.10;;;6.20;97.70;6.20;102047.00;;;;4930455;28;95138;-67
2023/02/28 08:39:56;;;;;;;7.73;3.60;;;6.60;97.60;6.40;102039.00;;;;4929268;28;102285;-66
2023/02/28 08:42:22;;;;;;;4.47;2.80;;;6.50;96.90;6.60;102048.00;;;;4927763;28;92933;-69
2023/02/28 08:44:48;;;;;;;10.10;3.30;;;6.70;94.80;6.70;102053.00;;;;4932110;28;114442;-66
2023/02/28 08:47:13;;;;;;;4.07;2.70;;;6.90;94.00;6.90;102047.00;;;;4927596;28;122237;-69
2023/02/28 08:49:39;;;;;;;4.97;2.50;;;7.00;92.30;7.00;102039.00;;;;4928422;28;110342;-68
2023/02/28 08:52:04;;;;;;;3.63;2.30;;;7.20;89.90;7.10;102057.00;;;;4909287;28;92910;-68
2023/02/28 08:54:31;;;;;;;4.73;2.23;;;7.20;89.50;7.30;102052.00;;;;4925724;28;122472;-67
2023/02/28 08:56:57;;;;;;;4.90;3.00;;;8.20;86.50;7.30;102044.00;;;;4928644;28;93404;-69
2023/02/28 08:59:23;;;;;;;4.00;2.60;;;7.50;84.70;7.50;102046.00;;;;4928863;28;110800;-68
2023/02/28 09:01:48;;;;;;;3.10;2.63;;;7.70;83.30;7.60;102052.00;;;;4925466;28;108639;-70
2023/02/28 09:04:14;;;;;;;6.87;2.37;;;7.70;82.60;7.80;102057.00;;;;4928430;28;120463;-67
2023/02/28 09:06:40;;;;;;;4.33;2.37;;;7.90;83.50;8.00;102050.00;;;;4927735;28;120848;-67
2023/02/28 09:09:07;;;;;;;3.07;2.50;;;8.20;82.80;8.20;102042.00;;;;4925311;28;108415;-68
2023/02/28 09:11:34;;;;;;;4.30;2.00;;;8.30;80.90;8.30;102044.00;;;;4928113;28;93753;-67
2023/02/28 09:14:03;;;;;;;3.63;2.13;;;8.50;77.00;8.00;102048.00;;;;4898693;28;1117884;-66
2023/02/28 09:16:30;;;;;;;3.87;2.50;;;8.20;73.90;7.60;102049.00;;;;4928768;28;94123;-69
2023/02/28 09:18:56;;;;;;;6.37;2.53;;;8.20;71.00;7.10;102042.00;;;;4929522;28;92841;-68
2023/02/28 09:21:22;;;;;;;4.87;2.67;;;7.50;68.30;6.70;102042.00;;;;4925525;28;98082;-68
2023/02/28 09:23:51;;;;;;;3.97;2.03;;;7.10;66.80;6.40;102039.00;;;;4943702;28;93220;-68
2023/02/28 09:26:26;;;;;;;4.07;2.80;;;6.80;61.70;6.10;102033.00;;;;4922608;28;122815;-66
2023/02/28 09:28:53;;;;;;;3.27;2.33;;;6.50;64.00;5.90;102040.00;;;;4942424;28;92175;-67
2023/02/28 09:31:24;;;;;;;6.57;2.73;;;6.20;64.20;5.70;102040.00;;;;4928622;28;93174;-67
2023/02/28 09:33:52;;;;;;;4.77;2.97;;;6.50;65.00;5.70;102033.00;;;;4927229;28;93314;-67
2023/02/28 09:36:19;;;;;;;4.20;2.97;;;5.80;67.20;5.80;102040.00;;;;4928546;28;93958;-67
2023/02/28 09:38:46;;;;;;;6.43;3.37;;;5.90;67.10;6.00;102038.00;;;;4929633;28;93202;-69
2023/02/28 09:41:16;;;;;;;2.57;2.20;;;6.50;67.50;6.00;102039.00;;;;4928509;28;92926;-68
2023/02/28 09:43:50;;;;;;;4.70;2.97;;;6.20;65.70;5.90;102045.00;;;;4928423;28;93138;-66
2023/02/28 09:46:40;;;;;;;2.50;2.30;;;6.20;65.20;5.70;102047.00;;;;4927056;28;114275;-66
2023/02/28 09:49:12;;;;;;;4.73;3.00;;;5.90;63.70;5.50;102047.00;;;;4929770;28;93005;-67
2023/02/28 09:52:10;;;;;;;7.97;3.17;;;5.70;62.30;5.20;102042.00;;;;4928010;28;93317;-67
2023/02/28 09:54:36;;;;;;;2.27;2.07;;;5.60;63.10;5.00;102047.00;;;;4927413;28;92960;-66
2023/02/28 09:57:09;;;;;;;3.30;3.00;;;5.30;61.70;4.80;102048.00;;;;4926145;28;92853;-65
2023/02/28 10:00:07;;;;;;;2.93;1.90;;;5.10;62.70;4.80;102049.00;;;;4926045;28;95859;-67
2023/02/28 10:03:18;;;;;;;3.83;2.37;;;5.00;64.10;4.90;102057.00;;;;4928913;28;94621;-67
2023/02/28 10:05:53;;;;;;;6.33;2.83;;;5.70;66.10;4.90;102046.00;;;;4923660;28;93595;-70
2023/02/28 10:08:41;;;;;;;3.27;2.60;;;5.10;66.00;5.00;102049.00;;;;4920157;28;98199;-69
2023/02/28 10:11:10;;;;;;;4.57;2.77;;;4.90;65.60;5.10;102051.00;;;;4926866;28;93116;-68
2023/02/28 10:14:12;;;;;;;5.93;2.77;;;6.10;65.10;5.20;102055.00;;;;4925881;28;93158;-68
2023/02/28 10:16:56;;;;;;;4.70;2.90;;;5.30;64.50;5.50;102052.00;;;;4923866;28;93355;-68
2023/02/28 10:19:40;;;;;;;2.97;2.40;;;5.70;65.80;5.80;102053.00;;;;4927968;28;95358;-66
2023/02/28 10:22:35;;;;;;;4.67;2.67;;;5.80;66.10;5.90;102054.00;;;;4929034;28;92176;-70
2023/02/28 10:25:15;;;;;;;4.83;3.00;;;6.00;64.90;5.90;102058.00;;;;4890482;28;99196;-68
2023/02/28 10:27:40;;;;;;;2.63;2.33;;;5.90;64.80;6.10;102041.00;;;;4919731;28;109065;-67
2023/02/28 10:30:10;;;;;;;6.13;2.43;;;6.80;65.50;6.30;102045.00;;;;4922997;28;122836;-68
2023/02/28 10:32:38;;;;;;;2.60;2.20;;;6.40;63.50;6.40;102042.00;;;;4941141;28;92930;-68
2023/02/28 10:35:22;;;;;;;3.50;2.60;;;6.80;61.60;6.30;102049.00;;;;4927910;28;93194;-68
2023/02/28 10:37:58;;;;;;;4.33;3.23;;;6.40;60.40;6.30;102048.00;;;;4925745;28;92960;-69
2023/02/28 10:40:23;;;;;;;4.77;2.77;;;6.50;60.40;6.40;102040.00;;;;4927185;28;101952;-68
2023/02/28 10:43:18;;;;;;;5.20;3.27;;;6.50;60.80;6.90;102038.00;;;;4926721;28;109333;-67
2023/02/28 10:46:13;;;;;;;3.27;2.97;;;6.80;63.40;7.60;102038.00;;;;4928151;28;92943;-66
2023/02/28 10:48:49;;;;;;;5.40;3.00;;;7.30;64.20;8.10;102034.00;;;;4924258;28;92560;-66
2023/02/28 10:51:19;;;;;;;4.37;3.67;;;7.80;60.50;8.30;102038.00;;;;4941557;28;110099;-66
2023/02/28 10:53:55;;;;;;;3.87;2.63;;;8.20;57.40;8.40;102039.00;;;;4927878;28;93080;-69
2023/02/28 10:56:23;;;;;;;6.30;3.20;;;8.30;57.40;8.40;102038.00;;;;4941294;28;94735;-69
2023/02/28 10:59:07;;;;;;;7.40;2.33;;;8.40;56.10;8.20;102027.00;;;;4927663;28;100780;-69
2023/02/28 11:01:48;;;;;;;5.30;3.10;;;8.30;54.80;8.00;102022.00;;;;4924330;28;94564;-70
2023/02/28 11:04:39;;;;;;;5.43;3.47;;;8.20;55.10;7.80;102025.00;;;;4927626;28;93035;-68
2023/02/28 11:07:21;;;;;;;4.83;3.10;;;8.00;54.50;7.40;102029.00;;;;4934648;28;93124;-70
2023/02/28 11:09:51;;;;;;;3.10;2.40;;;7.70;55.10;7.70;102025.00;;;;4923612;28;93135;-69